sensor_id;sensor_type;location;lat;lon;timestamp;pressure;altitude;pressure_sealevel;temperature;humidity
45731;BME280;31440;48.584;13.460;2023-04-22T00:00:04;96363.28;;;11.32;61.87
45731;BME280;31440;48.584;13.460;2023-04-22T00:03:08;96386.75;;;11.30;62.96
45731;BME280;31440;48.584;13.460;2023-04-22T00:06:13;96387.66;;;11.48;61.31
45731;BME280;31440;48.584;13.460;2023-04-22T00:09:18;96381.13;;;11.39;62.64
45731;BME280;31440;48.584;13.460;2023-04-22T00:12:22;96380.78;;;11.28;61.61
45731;BME280;31440;48.584;13.460;2023-04-22T00:15:27;96379.59;;;11.35;62.07
45731;BME280;31440;48.584;13.460;2023-04-22T00:21:37;96375.81;;;11.03;64.29
45731;BME280;31440;48.584;13.460;2023-04-22T00:24:41;96388.00;;;11.01;64.93
45731;BME280;31440;48.584;13.460;2023-04-22T00:27:46;96381.28;;;10.97;64.64
45731;BME280;31440;48.584;13.460;2023-04-22T00:30:51;96360.81;;;10.69;67.44
45731;BME280;31440;48.584;13.460;2023-04-22T00:33:55;96370.16;;;10.73;69.47
45731;BME280;31440;48.584;13.460;2023-04-22T00:37:00;96361.72;;;10.68;69.38
45731;BME280;31440;48.584;13.460;2023-04-22T00:40:05;96375.19;;;10.58;71.01
45731;BME280;31440;48.584;13.460;2023-04-22T00:43:11;96367.78;;;10.28;74.61
45731;BME280;31440;48.584;13.460;2023-04-22T00:46:16;96374.44;;;9.92;78.46
45731;BME280;31440;48.584;13.460;2023-04-22T00:52:27;96370.44;;;10.88;69.89
45731;BME280;31440;48.584;13.460;2023-04-22T00:55:32;96366.34;;;10.41;74.60
45731;BME280;31440;48.584;13.460;2023-04-22T00:58:37;96363.16;;;10.55;72.79
45731;BME280;31440;48.584;13.460;2023-04-22T01:01:42;96369.19;;;10.35;75.15
45731;BME280;31440;48.584;13.460;2023-04-22T01:04:47;96367.34;;;10.17;76.45
45731;BME280;31440;48.584;13.460;2023-04-22T01:10:58;96376.03;;;10.16;75.83
45731;BME280;31440;48.584;13.460;2023-04-22T01:14:03;96372.31;;;10.64;71.57
45731;BME280;31440;48.584;13.460;2023-04-22T01:17:09;96365.50;;;10.41;73.56
45731;BME280;31440;48.584;13.460;2023-04-22T01:20:15;96372.03;;;10.49;70.50
45731;BME280;31440;48.584;13.460;2023-04-22T01:23:20;96370.94;;;10.35;72.52
45731;BME280;31440;48.584;13.460;2023-04-22T01:26:25;96367.69;;;10.50;71.42
45731;BME280;31440;48.584;13.460;2023-04-22T01:29:30;96368.53;;;10.30;73.26
45731;BME280;31440;48.584;13.460;2023-04-22T01:32:35;96349.56;;;10.08;73.20
45731;BME280;31440;48.584;13.460;2023-04-22T01:35:40;96371.56;;;10.20;73.14
45731;BME280;31440;48.584;13.460;2023-04-22T01:38:44;96372.00;;;10.09;74.22
45731;BME280;31440;48.584;13.460;2023-04-22T01:41:49;96372.63;;;10.36;72.11
45731;BME280;31440;48.584;13.460;2023-04-22T01:44:54;96375.34;;;10.33;72.17
45731;BME280;31440;48.584;13.460;2023-04-22T01:47:59;96380.75;;;10.06;74.10
45731;BME280;31440;48.584;13.460;2023-04-22T01:51:03;96377.44;;;10.03;74.24
45731;BME280;31440;48.584;13.460;2023-04-22T01:54:08;96382.28;;;9.90;74.87
45731;BME280;31440;48.584;13.460;2023-04-22T01:57:13;96382.19;;;10.13;71.81
45731;BME280;31440;48.584;13.460;2023-04-22T02:00:20;96385.81;;;9.21;82.70
45731;BME280;31440;48.584;13.460;2023-04-22T02:03:24;96379.47;;;9.51;81.99
45731;BME280;31440;48.584;13.460;2023-04-22T02:06:32;96386.16;;;9.78;79.14
45731;BME280;31440;48.584;13.460;2023-04-22T02:09:36;96376.22;;;9.68;78.37
45731;BME280;31440;48.584;13.460;2023-04-22T02:12:41;96376.59;;;9.81;78.64
45731;BME280;31440;48.584;13.460;2023-04-22T02:15:46;96367.75;;;9.86;76.54
45731;BME280;31440;48.584;13.460;2023-04-22T02:18:52;96375.94;;;9.97;75.81
45731;BME280;31440;48.584;13.460;2023-04-22T02:21:56;96377.75;;;9.73;77.39
45731;BME280;31440;48.584;13.460;2023-04-22T02:25:01;96375.19;;;9.94;75.49
45731;BME280;31440;48.584;13.460;2023-04-22T02:28:06;96378.63;;;9.94;75.68
45731;BME280;31440;48.584;13.460;2023-04-22T02:31:11;96371.97;;;8.97;87.36
45731;BME280;31440;48.584;13.460;2023-04-22T02:37:23;96357.06;;;9.50;80.62
45731;BME280;31440;48.584;13.460;2023-04-22T02:40:28;96380.25;;;9.53;81.38
45731;BME280;31440;48.584;13.460;2023-04-22T02:43:32;96380.34;;;9.73;80.80
45731;BME280;31440;48.584;13.460;2023-04-22T02:46:37;96374.72;;;9.16;88.37
45731;BME280;31440;48.584;13.460;2023-04-22T02:49:41;96380.91;;;9.36;85.77
45731;BME280;31440;48.584;13.460;2023-04-22T02:52:46;96381.78;;;9.35;85.06
45731;BME280;31440;48.584;13.460;2023-04-22T02:55:50;96388.28;;;8.99;88.88
45731;BME280;31440;48.584;13.460;2023-04-22T02:58:55;96380.81;;;8.66;92.33
45731;BME280;31440;48.584;13.460;2023-04-22T03:02:00;96380.63;;;8.71;92.55
45731;BME280;31440;48.584;13.460;2023-04-22T03:05:17;96380.81;;;8.66;95.56
45731;BME280;31440;48.584;13.460;2023-04-22T03:08:22;96372.34;;;8.61;93.94
45731;BME280;31440;48.584;13.460;2023-04-22T03:11:27;96380.16;;;8.60;93.88
45731;BME280;31440;48.584;13.460;2023-04-22T03:14:31;96378.22;;;8.42;97.44
45731;BME280;31440;48.584;13.460;2023-04-22T03:17:36;96378.38;;;8.62;96.64
45731;BME280;31440;48.584;13.460;2023-04-22T03:20:46;96387.69;;;8.41;97.88
45731;BME280;31440;48.584;13.460;2023-04-22T03:23:51;96392.06;;;8.65;94.70
45731;BME280;31440;48.584;13.460;2023-04-22T03:26:56;96412.38;;;7.10;100.00
45731;BME280;31440;48.584;13.460;2023-04-22T03:30:01;96403.56;;;6.21;100.00
45731;BME280;31440;48.584;13.460;2023-04-22T03:33:05;96367.28;;;6.92;100.00
45731;BME280;31440;48.584;13.460;2023-04-22T03:36:20;96399.31;;;7.75;100.00
45731;BME280;31440;48.584;13.460;2023-04-22T03:39:25;96395.22;;;8.49;100.00
45731;BME280;31440;48.584;13.460;2023-04-22T03:42:30;96401.34;;;8.46;100.00
45731;BME280;31440;48.584;13.460;2023-04-22T03:45:35;96406.22;;;7.75;100.00
45731;BME280;31440;48.584;13.460;2023-04-22T03:48:54;96412.34;;;8.51;100.00
45731;BME280;31440;48.584;13.460;2023-04-22T03:52:05;96419.88;;;8.06;100.00
45731;BME280;31440;48.584;13.460;2023-04-22T03:55:11;96415.97;;;8.47;100.00
45731;BME280;31440;48.584;13.460;2023-04-22T03:58:15;96410.25;;;8.87;100.00
45731;BME280;31440;48.584;13.460;2023-04-22T04:01:21;96401.16;;;8.51;100.00
45731;BME280;31440;48.584;13.460;2023-04-22T04:04:29;96410.94;;;8.67;100.00
45731;BME280;31440;48.584;13.460;2023-04-22T04:07:37;96413.41;;;8.70;100.00
45731;BME280;31440;48.584;13.460;2023-04-22T04:10:43;96415.69;;;8.55;100.00
45731;BME280;31440;48.584;13.460;2023-04-22T04:13:48;96410.91;;;8.94;95.97
45731;BME280;31440;48.584;13.460;2023-04-22T04:17:03;96411.75;;;8.94;94.13
45731;BME280;31440;48.584;13.460;2023-04-22T04:20:11;96408.09;;;9.00;94.31
45731;BME280;31440;48.584;13.460;2023-04-22T04:23:16;96406.66;;;9.16;92.98
45731;BME280;31440;48.584;13.460;2023-04-22T04:26:22;96415.84;;;9.25;91.96
45731;BME280;31440;48.584;13.460;2023-04-22T04:29:32;96414.31;;;8.69;98.21
45731;BME280;31440;48.584;13.460;2023-04-22T04:32:48;96411.69;;;8.96;98.95
45731;BME280;31440;48.584;13.460;2023-04-22T04:35:54;96415.69;;;8.55;100.00
45731;BME280;31440;48.584;13.460;2023-04-22T04:39:05;96406.06;;;8.85;100.00
45731;BME280;31440;48.584;13.460;2023-04-22T04:42:10;96413.19;;;8.27;100.00
45731;BME280;31440;48.584;13.460;2023-04-22T04:45:23;96412.63;;;8.17;100.00
45731;BME280;31440;48.584;13.460;2023-04-22T04:48:29;96409.09;;;8.20;100.00
45731;BME280;31440;48.584;13.460;2023-04-22T04:51:40;96417.50;;;8.26;100.00
45731;BME280;31440;48.584;13.460;2023-04-22T04:54:44;96416.06;;;8.18;100.00
45731;BME280;31440;48.584;13.460;2023-04-22T04:57:49;96420.03;;;8.28;100.00
45731;BME280;31440;48.584;13.460;2023-04-22T05:00:53;96421.75;;;8.54;100.00
45731;BME280;31440;48.584;13.460;2023-04-22T05:07:04;96411.91;;;8.65;100.00
45731;BME280;31440;48.584;13.460;2023-04-22T05:10:13;96410.88;;;8.18;100.00
45731;BME280;31440;48.584;13.460;2023-04-22T05:13:17;96412.53;;;8.47;100.00
45731;BME280;31440;48.584;13.460;2023-04-22T05:16:24;96412.03;;;8.35;100.00
45731;BME280;31440;48.584;13.460;2023-04-22T05:19:29;96411.09;;;8.38;100.00
45731;BME280;31440;48.584;13.460;2023-04-22T05:22:34;96407.94;;;8.55;100.00
45731;BME280;31440;48.584;13.460;2023-04-22T05:25:40;96410.41;;;8.58;100.00
45731;BME280;31440;48.584;13.460;2023-04-22T05:28:47;96416.06;;;8.44;100.00
45731;BME280;31440;48.584;13.460;2023-04-22T05:31:54;96417.16;;;8.87;100.00
45731;BME280;31440;48.584;13.460;2023-04-22T05:34:59;96411.06;;;8.64;100.00
45731;BME280;31440;48.584;13.460;2023-04-22T05:38:05;96372.06;;;8.69;100.00
45731;BME280;31440;48.584;13.460;2023-04-22T05:41:11;96421.44;;;8.88;100.00
45731;BME280;31440;48.584;13.460;2023-04-22T05:44:16;96422.22;;;8.66;100.00
45731;BME280;31440;48.584;13.460;2023-04-22T05:47:21;96423.31;;;8.84;100.00
45731;BME280;31440;48.584;13.460;2023-04-22T05:50:26;96425.78;;;9.12;100.00
45731;BME280;31440;48.584;13.460;2023-04-22T05:53:38;96427.69;;;9.32;100.00
45731;BME280;31440;48.584;13.460;2023-04-22T05:56:43;96422.19;;;9.39;100.00
45731;BME280;31440;48.584;13.460;2023-04-22T05:59:48;96413.31;;;9.92;100.00
45731;BME280;31440;48.584;13.460;2023-04-22T06:02:52;96414.03;;;9.73;100.00
45731;BME280;31440;48.584;13.460;2023-04-22T06:05:57;96403.63;;;10.39;100.00
45731;BME280;31440;48.584;13.460;2023-04-22T06:09:02;96415.75;;;10.38;100.00
45731;BME280;31440;48.584;13.460;2023-04-22T06:12:06;96420.72;;;10.01;100.00
45731;BME280;31440;48.584;13.460;2023-04-22T06:15:11;96428.31;;;10.69;100.00
45731;BME280;31440;48.584;13.460;2023-04-22T06:18:17;96415.00;;;10.57;100.00
45731;BME280;31440;48.584;13.460;2023-04-22T06:21:22;96423.16;;;11.49;95.08
45731;BME280;31440;48.584;13.460;2023-04-22T06:24:26;96420.75;;;11.63;94.35
45731;BME280;31440;48.584;13.460;2023-04-22T06:27:31;96422.19;;;11.12;100.00
45731;BME280;31440;48.584;13.460;2023-04-22T06:30:36;96412.38;;;11.57;98.23
45731;BME280;31440;48.584;13.460;2023-04-22T06:33:40;96425.66;;;11.32;98.05
45731;BME280;31440;48.584;13.460;2023-04-22T06:36:45;96422.91;;;12.10;91.66
45731;BME280;31440;48.584;13.460;2023-04-22T06:39:49;96419.63;;;12.25;88.82
45731;BME280;31440;48.584;13.460;2023-04-22T06:46:36;96419.31;;;12.48;86.50
45731;BME280;31440;48.584;13.460;2023-04-22T06:49:45;96424.13;;;12.22;89.19
45731;BME280;31440;48.584;13.460;2023-04-22T06:52:59;96422.47;;;12.89;83.57
45731;BME280;31440;48.584;13.460;2023-04-22T06:56:04;96425.72;;;12.60;85.48
45731;BME280;31440;48.584;13.460;2023-04-22T06:59:09;96372.44;;;12.83;85.73
45731;BME280;31440;48.584;13.460;2023-04-22T07:02:13;96423.47;;;13.37;84.82
45731;BME280;31440;48.584;13.460;2023-04-22T07:05:20;96421.13;;;13.15;86.55
45731;BME280;31440;48.584;13.460;2023-04-22T07:08:25;96416.03;;;14.41;74.51
45731;BME280;31440;48.584;13.460;2023-04-22T07:11:30;96422.72;;;14.31;73.87
45731;BME280;31440;48.584;13.460;2023-04-22T07:14:48;96421.69;;;15.09;70.01
45731;BME280;31440;48.584;13.460;2023-04-22T07:17:54;96398.44;;;15.05;72.68
45731;BME280;31440;48.584;13.460;2023-04-22T07:20:58;96419.19;;;15.22;72.68
45731;BME280;31440;48.584;13.460;2023-04-22T07:24:03;96420.50;;;15.29;70.29
45731;BME280;31440;48.584;13.460;2023-04-22T07:27:08;96421.84;;;15.64;69.16
45731;BME280;31440;48.584;13.460;2023-04-22T07:30:13;96420.69;;;15.40;60.74
45731;BME280;31440;48.584;13.460;2023-04-22T07:33:17;96421.25;;;15.88;60.42
45731;BME280;31440;48.584;13.460;2023-04-22T07:36:22;96415.94;;;15.75;61.34
45731;BME280;31440;48.584;13.460;2023-04-22T07:39:26;96425.66;;;15.73;61.35
45731;BME280;31440;48.584;13.460;2023-04-22T07:42:31;96422.47;;;15.54;61.85
45731;BME280;31440;48.584;13.460;2023-04-22T07:48:42;96423.66;;;16.59;58.71
45731;BME280;31440;48.584;13.460;2023-04-22T07:51:47;96423.97;;;16.00;57.74
45731;BME280;31440;48.584;13.460;2023-04-22T07:54:51;96423.72;;;16.45;58.42
45731;BME280;31440;48.584;13.460;2023-04-22T07:57:56;96409.19;;;16.53;52.93
45731;BME280;31440;48.584;13.460;2023-04-22T08:01:00;96421.25;;;16.83;52.83
45731;BME280;31440;48.584;13.460;2023-04-22T08:04:05;96407.13;;;16.98;53.05
45731;BME280;31440;48.584;13.460;2023-04-22T08:07:13;96412.56;;;16.95;54.15
45731;BME280;31440;48.584;13.460;2023-04-22T08:10:35;96418.63;;;16.83;54.06
45731;BME280;31440;48.584;13.460;2023-04-22T08:13:40;96408.00;;;17.62;52.74
45731;BME280;31440;48.584;13.460;2023-04-22T08:16:44;96404.94;;;17.68;53.47
45731;BME280;31440;48.584;13.460;2023-04-22T08:19:49;96408.72;;;18.13;50.24
45731;BME280;31440;48.584;13.460;2023-04-22T08:22:53;96406.19;;;17.50;52.32
45731;BME280;31440;48.584;13.460;2023-04-22T08:26:02;96399.53;;;18.55;52.53
45731;BME280;31440;48.584;13.460;2023-04-22T08:29:07;96405.97;;;18.51;49.85
45731;BME280;31440;48.584;13.460;2023-04-22T08:32:11;96402.78;;;18.59;51.17
45731;BME280;31440;48.584;13.460;2023-04-22T08:35:18;96393.31;;;18.80;51.62
45731;BME280;31440;48.584;13.460;2023-04-22T08:38:23;96395.53;;;19.77;53.10
45731;BME280;31440;48.584;13.460;2023-04-22T08:41:27;96399.22;;;20.51;50.52
45731;BME280;31440;48.584;13.460;2023-04-22T08:44:34;96399.69;;;19.57;46.77
45731;BME280;31440;48.584;13.460;2023-04-22T08:47:40;96374.63;;;19.18;47.71
45731;BME280;31440;48.584;13.460;2023-04-22T08:50:46;96391.84;;;20.34;47.46
45731;BME280;31440;48.584;13.460;2023-04-22T08:53:51;96397.34;;;20.42;46.84
45731;BME280;31440;48.584;13.460;2023-04-22T08:56:56;96399.66;;;20.02;48.39
45731;BME280;31440;48.584;13.460;2023-04-22T09:00:01;96400.09;;;20.72;47.31
45731;BME280;31440;48.584;13.460;2023-04-22T09:03:07;96384.69;;;21.51;46.62
45731;BME280;31440;48.584;13.460;2023-04-22T09:06:12;96388.41;;;21.48;44.29
45731;BME280;31440;48.584;13.460;2023-04-22T09:09:18;96383.28;;;21.26;49.14
45731;BME280;31440;48.584;13.460;2023-04-22T09:12:26;96387.00;;;22.05;47.00
45731;BME280;31440;48.584;13.460;2023-04-22T09:15:31;96385.31;;;21.43;43.45
45731;BME280;31440;48.584;13.460;2023-04-22T09:18:41;96374.28;;;20.55;45.37
45731;BME280;31440;48.584;13.460;2023-04-22T09:21:46;96386.88;;;21.46;43.21
45731;BME280;31440;48.584;13.460;2023-04-22T09:24:54;96384.44;;;21.94;46.82
45731;BME280;31440;48.584;13.460;2023-04-22T09:27:59;96377.69;;;22.80;41.32
45731;BME280;31440;48.584;13.460;2023-04-22T09:31:04;96375.22;;;23.44;43.24
45731;BME280;31440;48.584;13.460;2023-04-22T09:34:08;96373.75;;;22.94;40.77
45731;BME280;31440;48.584;13.460;2023-04-22T09:37:13;96378.22;;;21.34;42.02
45731;BME280;31440;48.584;13.460;2023-04-22T09:40:18;96376.66;;;21.32;42.97
45731;BME280;31440;48.584;13.460;2023-04-22T09:43:23;96370.97;;;20.95;41.59
45731;BME280;31440;48.584;13.460;2023-04-22T09:46:29;96374.63;;;20.62;41.80
45731;BME280;31440;48.584;13.460;2023-04-22T09:49:37;96366.53;;;21.88;42.55
45731;BME280;31440;48.584;13.460;2023-04-22T09:52:42;96366.03;;;22.33;39.75
45731;BME280;31440;48.584;13.460;2023-04-22T09:55:50;96357.91;;;22.74;40.99
45731;BME280;31440;48.584;13.460;2023-04-22T09:58:54;96358.53;;;22.47;39.78
45731;BME280;31440;48.584;13.460;2023-04-22T10:02:00;96354.09;;;23.06;38.39
45731;BME280;31440;48.584;13.460;2023-04-22T10:05:07;96348.44;;;22.72;38.78
45731;BME280;31440;48.584;13.460;2023-04-22T10:08:15;96352.25;;;23.35;39.02
45731;BME280;31440;48.584;13.460;2023-04-22T10:11:20;96348.47;;;23.18;39.53
45731;BME280;31440;48.584;13.460;2023-04-22T10:14:25;96350.00;;;22.05;38.88
45731;BME280;31440;48.584;13.460;2023-04-22T10:17:30;96349.78;;;22.47;38.59
45731;BME280;31440;48.584;13.460;2023-04-22T10:20:38;96338.69;;;22.72;36.75
45731;BME280;31440;48.584;13.460;2023-04-22T10:23:46;96348.94;;;23.14;38.57
45731;BME280;31440;48.584;13.460;2023-04-22T10:26:56;96346.06;;;23.54;35.71
45731;BME280;31440;48.584;13.460;2023-04-22T10:30:01;96349.38;;;23.56;35.84
45731;BME280;31440;48.584;13.460;2023-04-22T10:36:26;96339.75;;;25.08;37.34
45731;BME280;31440;48.584;13.460;2023-04-22T10:39:32;96335.28;;;25.09;37.01
45731;BME280;31440;48.584;13.460;2023-04-22T10:42:40;96325.59;;;25.25;33.64
45731;BME280;31440;48.584;13.460;2023-04-22T10:45:44;96321.97;;;24.65;34.43
45731;BME280;31440;48.584;13.460;2023-04-22T10:48:49;96323.84;;;25.34;34.75
45731;BME280;31440;48.584;13.460;2023-04-22T10:51:55;96317.38;;;25.71;35.40
45731;BME280;31440;48.584;13.460;2023-04-22T10:55:03;96320.44;;;24.80;34.66
45731;BME280;31440;48.584;13.460;2023-04-22T10:58:23;96318.78;;;25.23;32.22
45731;BME280;31440;48.584;13.460;2023-04-22T11:01:28;96321.53;;;23.79;34.25
45731;BME280;31440;48.584;13.460;2023-04-22T11:04:33;96319.84;;;24.33;33.29
45731;BME280;31440;48.584;13.460;2023-04-22T11:07:38;96315.63;;;25.45;34.48
45731;BME280;31440;48.584;13.460;2023-04-22T11:10:50;96307.25;;;26.08;33.02
45731;BME280;31440;48.584;13.460;2023-04-22T11:13:56;96305.38;;;26.83;31.18
45731;BME280;31440;48.584;13.460;2023-04-22T11:17:01;96317.13;;;26.32;34.73
45731;BME280;31440;48.584;13.460;2023-04-22T11:20:06;96310.59;;;24.55;33.65
45731;BME280;31440;48.584;13.460;2023-04-22T11:23:16;96287.03;;;22.78;35.81
45731;BME280;31440;48.584;13.460;2023-04-22T11:26:34;96299.06;;;24.11;36.04
45731;BME280;31440;48.584;13.460;2023-04-22T11:29:39;96309.53;;;24.30;34.00
45731;BME280;31440;48.584;13.460;2023-04-22T11:32:45;96312.69;;;23.98;35.57
45731;BME280;31440;48.584;13.460;2023-04-22T11:35:50;96298.94;;;25.35;33.93
45731;BME280;31440;48.584;13.460;2023-04-22T11:38:55;96303.25;;;24.49;34.59
45731;BME280;31440;48.584;13.460;2023-04-22T11:42:00;96293.91;;;25.50;31.88
45731;BME280;31440;48.584;13.460;2023-04-22T11:45:07;96298.16;;;25.43;32.42
45731;BME280;31440;48.584;13.460;2023-04-22T11:48:13;96297.41;;;24.63;36.41
45731;BME280;31440;48.584;13.460;2023-04-22T11:51:18;96284.75;;;24.75;34.50
45731;BME280;31440;48.584;13.460;2023-04-22T11:54:35;96298.53;;;24.96;34.30
45731;BME280;31440;48.584;13.460;2023-04-22T11:57:40;96283.94;;;25.00;34.19
45731;BME280;31440;48.584;13.460;2023-04-22T12:00:47;96291.00;;;25.69;36.78
45731;BME280;31440;48.584;13.460;2023-04-22T12:06:58;96283.53;;;26.31;32.25
45731;BME280;31440;48.584;13.460;2023-04-22T12:10:06;96277.63;;;27.65;29.82
45731;BME280;31440;48.584;13.460;2023-04-22T12:13:23;96285.41;;;26.95;32.58
45731;BME280;31440;48.584;13.460;2023-04-22T12:16:27;96280.69;;;27.14;31.79
45731;BME280;31440;48.584;13.460;2023-04-22T12:19:32;96282.88;;;26.45;32.45
45731;BME280;31440;48.584;13.460;2023-04-22T12:22:37;96277.22;;;27.13;33.83
45731;BME280;31440;48.584;13.460;2023-04-22T12:25:42;96281.19;;;27.17;31.13
45731;BME280;31440;48.584;13.460;2023-04-22T12:28:47;96272.06;;;28.83;29.13
45731;BME280;31440;48.584;13.460;2023-04-22T12:31:53;96263.66;;;28.71;29.58
45731;BME280;31440;48.584;13.460;2023-04-22T12:34:57;96266.16;;;27.96;30.98
45731;BME280;31440;48.584;13.460;2023-04-22T12:38:03;96235.06;;;28.94;31.20
45731;BME280;31440;48.584;13.460;2023-04-22T12:41:07;96260.13;;;28.25;30.86
45731;BME280;31440;48.584;13.460;2023-04-22T12:44:12;96255.81;;;28.01;29.88
45731;BME280;31440;48.584;13.460;2023-04-22T12:47:16;96266.25;;;27.24;30.46
45731;BME280;31440;48.584;13.460;2023-04-22T12:50:21;96257.47;;;27.55;29.90
45731;BME280;31440;48.584;13.460;2023-04-22T12:53:26;96266.25;;;27.00;33.33
45731;BME280;31440;48.584;13.460;2023-04-22T12:56:31;96260.88;;;27.16;31.39
45731;BME280;31440;48.584;13.460;2023-04-22T12:59:36;96248.91;;;27.28;29.78
45731;BME280;31440;48.584;13.460;2023-04-22T13:02:41;96256.97;;;27.51;28.88
45731;BME280;31440;48.584;13.460;2023-04-22T13:05:47;96259.22;;;28.41;28.95
45731;BME280;31440;48.584;13.460;2023-04-22T13:08:51;96254.41;;;28.05;28.57
45731;BME280;31440;48.584;13.460;2023-04-22T13:11:56;96246.47;;;28.74;29.70
45731;BME280;31440;48.584;13.460;2023-04-22T13:15:02;96245.63;;;29.40;29.60
45731;BME280;31440;48.584;13.460;2023-04-22T13:18:07;96234.38;;;28.40;29.20
45731;BME280;31440;48.584;13.460;2023-04-22T13:21:11;96224.78;;;28.00;28.36
45731;BME280;31440;48.584;13.460;2023-04-22T13:24:18;96221.88;;;27.48;27.11
45731;BME280;31440;48.584;13.460;2023-04-22T13:27:23;96229.22;;;27.38;27.06
45731;BME280;31440;48.584;13.460;2023-04-22T13:30:27;96225.81;;;29.34;28.95
45731;BME280;31440;48.584;13.460;2023-04-22T13:33:32;96222.28;;;28.90;29.98
45731;BME280;31440;48.584;13.460;2023-04-22T13:36:36;96218.28;;;29.09;28.24
45731;BME280;31440;48.584;13.460;2023-04-22T13:39:41;96219.69;;;28.96;28.36
45731;BME280;31440;48.584;13.460;2023-04-22T13:42:46;96222.22;;;28.75;26.80
45731;BME280;31440;48.584;13.460;2023-04-22T13:45:50;96215.97;;;28.68;27.86
45731;BME280;31440;48.584;13.460;2023-04-22T13:48:56;96207.28;;;29.33;28.75
45731;BME280;31440;48.584;13.460;2023-04-22T13:52:00;96206.28;;;29.04;26.64
45731;BME280;31440;48.584;13.460;2023-04-22T13:58:11;96193.59;;;28.23;26.08
45731;BME280;31440;48.584;13.460;2023-04-22T14:01:17;96194.41;;;27.70;28.97
45731;BME280;31440;48.584;13.460;2023-04-22T14:04:21;96189.66;;;27.57;29.51
45731;BME280;31440;48.584;13.460;2023-04-22T14:10:32;96194.56;;;28.30;26.75
45731;BME280;31440;48.584;13.460;2023-04-22T14:13:37;96189.56;;;28.88;27.55
45731;BME280;31440;48.584;13.460;2023-04-22T14:16:41;96189.47;;;28.81;30.79
45731;BME280;31440;48.584;13.460;2023-04-22T14:19:46;96184.16;;;29.11;28.33
45731;BME280;31440;48.584;13.460;2023-04-22T14:22:51;96188.78;;;29.02;26.08
45731;BME280;31440;48.584;13.460;2023-04-22T14:29:01;96183.59;;;29.59;26.21
45731;BME280;31440;48.584;13.460;2023-04-22T14:32:06;96179.22;;;29.73;25.85
45731;BME280;31440;48.584;13.460;2023-04-22T14:35:10;96174.22;;;30.98;22.04
45731;BME280;31440;48.584;13.460;2023-04-22T14:38:15;96165.69;;;28.34;26.85
45731;BME280;31440;48.584;13.460;2023-04-22T14:41:20;96172.03;;;27.09;27.44
45731;BME280;31440;48.584;13.460;2023-04-22T14:44:25;96167.84;;;27.23;26.43
45731;BME280;31440;48.584;13.460;2023-04-22T14:47:29;96170.38;;;27.08;26.01
45731;BME280;31440;48.584;13.460;2023-04-22T14:50:34;96166.50;;;27.27;26.88
45731;BME280;31440;48.584;13.460;2023-04-22T14:53:39;96151.31;;;28.35;27.72
45731;BME280;31440;48.584;13.460;2023-04-22T14:59:51;96154.06;;;27.03;27.78
45731;BME280;31440;48.584;13.460;2023-04-22T15:02:55;96152.47;;;25.88;27.51
45731;BME280;31440;48.584;13.460;2023-04-22T15:06:00;96154.63;;;25.93;27.78
45731;BME280;31440;48.584;13.460;2023-04-22T15:09:05;96157.66;;;26.14;30.69
45731;BME280;31440;48.584;13.460;2023-04-22T15:12:11;96119.91;;;26.27;31.65
45731;BME280;31440;48.584;13.460;2023-04-22T15:15:15;96135.63;;;27.32;30.70
45731;BME280;31440;48.584;13.460;2023-04-22T15:18:21;96143.19;;;27.13;27.81
45731;BME280;31440;48.584;13.460;2023-04-22T15:21:26;96141.69;;;27.18;27.71
45731;BME280;31440;48.584;13.460;2023-04-22T15:24:31;96147.34;;;26.44;29.64
45731;BME280;31440;48.584;13.460;2023-04-22T15:27:37;96140.53;;;26.65;29.29
45731;BME280;31440;48.584;13.460;2023-04-22T15:30:41;96135.47;;;26.79;29.28
45731;BME280;31440;48.584;13.460;2023-04-22T15:33:47;96131.50;;;26.83;30.25
45731;BME280;31440;48.584;13.460;2023-04-22T15:36:51;96126.03;;;26.60;28.61
45731;BME280;31440;48.584;13.460;2023-04-22T15:43:02;96127.66;;;26.85;28.07
45731;BME280;31440;48.584;13.460;2023-04-22T15:46:07;96129.22;;;26.55;29.04
45731;BME280;31440;48.584;13.460;2023-04-22T15:49:13;96131.75;;;26.00;29.63
45731;BME280;31440;48.584;13.460;2023-04-22T15:52:18;96125.97;;;24.96;31.97
45731;BME280;31440;48.584;13.460;2023-04-22T15:55:22;96125.09;;;24.87;30.83
45731;BME280;31440;48.584;13.460;2023-04-22T15:58:27;96127.28;;;24.40;31.78
45731;BME280;31440;48.584;13.460;2023-04-22T16:01:37;96127.19;;;24.24;32.51
45731;BME280;31440;48.584;13.460;2023-04-22T16:04:44;96124.53;;;24.24;32.80
45731;BME280;31440;48.584;13.460;2023-04-22T16:07:49;96120.75;;;23.55;31.94
45731;BME280;31440;48.584;13.460;2023-04-22T16:10:54;96108.94;;;23.50;32.93
45731;BME280;31440;48.584;13.460;2023-04-22T16:13:58;96107.28;;;23.67;32.88
45731;BME280;31440;48.584;13.460;2023-04-22T16:17:03;96115.09;;;23.50;33.59
45731;BME280;31440;48.584;13.460;2023-04-22T16:20:09;96107.44;;;23.47;32.62
45731;BME280;31440;48.584;13.460;2023-04-22T16:23:13;96114.41;;;23.48;33.64
45731;BME280;31440;48.584;13.460;2023-04-22T16:26:20;96080.28;;;23.00;32.69
45731;BME280;31440;48.584;13.460;2023-04-22T16:29:24;96102.47;;;23.17;32.76
45731;BME280;31440;48.584;13.460;2023-04-22T16:32:29;96099.09;;;23.42;35.57
45731;BME280;31440;48.584;13.460;2023-04-22T16:35:34;96097.56;;;23.40;33.83
45731;BME280;31440;48.584;13.460;2023-04-22T16:38:39;96100.72;;;22.71;33.90
45731;BME280;31440;48.584;13.460;2023-04-22T16:41:44;96099.81;;;22.89;33.75
45731;BME280;31440;48.584;13.460;2023-04-22T16:44:48;96097.72;;;23.38;34.07
45731;BME280;31440;48.584;13.460;2023-04-22T16:47:54;96088.50;;;23.60;34.14
45731;BME280;31440;48.584;13.460;2023-04-22T16:50:59;96095.72;;;23.22;33.73
45731;BME280;31440;48.584;13.460;2023-04-22T16:54:03;96094.78;;;23.41;32.80